sensor_id;sensor_type;location;lat;lon;timestamp;pressure;altitude;pressure_sealevel;temperature;humidity
9307;BME280;4691;47.612;7.610;2023-04-16T00:01:25;98248.31;;;9.02;100.00
9307;BME280;4691;47.612;7.610;2023-04-16T00:03:51;98242.16;;;9.02;100.00
9307;BME280;4691;47.612;7.610;2023-04-16T00:06:16;98250.00;;;9.03;100.00
9307;BME280;4691;47.612;7.610;2023-04-16T00:08:41;98237.91;;;8.99;100.00
9307;BME280;4691;47.612;7.610;2023-04-16T00:11:07;98218.00;;;9.03;100.00
9307;BME280;4691;47.612;7.610;2023-04-16T00:13:33;98230.22;;;9.06;100.00
9307;BME280;4691;47.612;7.610;2023-04-16T00:15:58;98231.22;;;9.05;100.00
9307;BME280;4691;47.612;7.610;2023-04-16T00:18:23;98231.34;;;9.03;100.00
9307;BME280;4691;47.612;7.610;2023-04-16T00:20:49;98223.84;;;8.97;100.00
9307;BME280;4691;47.612;7.610;2023-04-16T00:23:15;98202.00;;;9.03;100.00
9307;BME280;4691;47.612;7.610;2023-04-16T00:25:40;98209.03;;;9.04;100.00
9307;BME280;4691;47.612;7.610;2023-04-16T00:28:07;98200.06;;;9.05;100.00
9307;BME280;4691;47.612;7.610;2023-04-16T00:30:33;98182.59;;;9.01;100.00
9307;BME280;4691;47.612;7.610;2023-04-16T00:32:58;98186.00;;;9.03;100.00
9307;BME280;4691;47.612;7.610;2023-04-16T00:35:23;98169.53;;;8.98;100.00
9307;BME280;4691;47.612;7.610;2023-04-16T00:37:49;98148.19;;;8.98;100.00
9307;BME280;4691;47.612;7.610;2023-04-16T00:40:14;98127.13;;;8.95;100.00
9307;BME280;4691;47.612;7.610;2023-04-16T00:42:39;98124.19;;;8.98;100.00
9307;BME280;4691;47.612;7.610;2023-04-16T00:45:05;98115.72;;;8.93;100.00
9307;BME280;4691;47.612;7.610;2023-04-16T00:47:31;98105.31;;;8.90;100.00
9307;BME280;4691;47.612;7.610;2023-04-16T00:49:56;98109.81;;;8.89;100.00
9307;BME280;4691;47.612;7.610;2023-04-16T00:52:21;98089.31;;;8.90;100.00
9307;BME280;4691;47.612;7.610;2023-04-16T00:54:47;98075.28;;;8.88;100.00
9307;BME280;4691;47.612;7.610;2023-04-16T00:57:13;98068.25;;;8.87;100.00
9307;BME280;4691;47.612;7.610;2023-04-16T00:59:40;98066.53;;;8.86;100.00
9307;BME280;4691;47.612;7.610;2023-04-16T01:02:05;98071.66;;;8.89;100.00
9307;BME280;4691;47.612;7.610;2023-04-16T01:04:30;98058.44;;;8.87;100.00
9307;BME280;4691;47.612;7.610;2023-04-16T01:06:57;98059.28;;;8.88;100.00
9307;BME280;4691;47.612;7.610;2023-04-16T01:09:22;98047.66;;;8.89;100.00
9307;BME280;4691;47.612;7.610;2023-04-16T01:11:47;98037.94;;;8.88;100.00
9307;BME280;4691;47.612;7.610;2023-04-16T01:14:12;98029.00;;;8.89;100.00
9307;BME280;4691;47.612;7.610;2023-04-16T01:16:38;98002.56;;;8.86;100.00
9307;BME280;4691;47.612;7.610;2023-04-16T01:19:03;97995.94;;;8.80;100.00
9307;BME280;4691;47.612;7.610;2023-04-16T01:21:28;97978.63;;;8.75;100.00
9307;BME280;4691;47.612;7.610;2023-04-16T01:23:54;97959.78;;;8.66;100.00
9307;BME280;4691;47.612;7.610;2023-04-16T01:26:19;97922.97;;;8.60;100.00
9307;BME280;4691;47.612;7.610;2023-04-16T01:28:45;97896.47;;;8.59;100.00
9307;BME280;4691;47.612;7.610;2023-04-16T01:31:10;97870.94;;;8.56;100.00
9307;BME280;4691;47.612;7.610;2023-04-16T01:33:35;97799.50;;;8.50;100.00
9307;BME280;4691;47.612;7.610;2023-04-16T01:36:00;97794.88;;;8.52;100.00
9307;BME280;4691;47.612;7.610;2023-04-16T01:38:26;97773.56;;;8.52;100.00
9307;BME280;4691;47.612;7.610;2023-04-16T01:40:55;97766.69;;;8.49;100.00
9307;BME280;4691;47.612;7.610;2023-04-16T01:43:21;97727.09;;;8.45;100.00
9307;BME280;4691;47.612;7.610;2023-04-16T01:45:47;97734.41;;;8.43;100.00
9307;BME280;4691;47.612;7.610;2023-04-16T01:48:12;97747.00;;;8.41;100.00
9307;BME280;4691;47.612;7.610;2023-04-16T01:50:37;97759.84;;;8.36;100.00
9307;BME280;4691;47.612;7.610;2023-04-16T01:53:03;97786.22;;;8.39;100.00
9307;BME280;4691;47.612;7.610;2023-04-16T01:55:29;97789.28;;;8.34;100.00
9307;BME280;4691;47.612;7.610;2023-04-16T01:57:55;97805.84;;;8.38;100.00
9307;BME280;4691;47.612;7.610;2023-04-16T02:00:20;97825.72;;;8.34;100.00
9307;BME280;4691;47.612;7.610;2023-04-16T02:02:45;97847.88;;;8.34;100.00
9307;BME280;4691;47.612;7.610;2023-04-16T02:05:11;97866.50;;;8.34;100.00
9307;BME280;4691;47.612;7.610;2023-04-16T02:07:36;97894.00;;;8.35;100.00
9307;BME280;4691;47.612;7.610;2023-04-16T02:10:01;97903.97;;;8.33;100.00
9307;BME280;4691;47.612;7.610;2023-04-16T02:12:28;97905.63;;;8.34;100.00
9307;BME280;4691;47.612;7.610;2023-04-16T02:14:54;97915.31;;;8.35;100.00
9307;BME280;4691;47.612;7.610;2023-04-16T02:19:32;97679.69;;;8.39;100.00
9307;BME280;4691;47.612;7.610;2023-04-16T02:21:57;97717.25;;;8.36;100.00
9307;BME280;4691;47.612;7.610;2023-04-16T02:24:22;97788.44;;;8.34;100.00
9307;BME280;4691;47.612;7.610;2023-04-16T02:26:47;97829.13;;;8.36;100.00
9307;BME280;4691;47.612;7.610;2023-04-16T02:29:13;97850.41;;;8.36;100.00
9307;BME280;4691;47.612;7.610;2023-04-16T02:31:38;97866.41;;;8.36;100.00
9307;BME280;4691;47.612;7.610;2023-04-16T02:34:04;97879.97;;;8.33;100.00
9307;BME280;4691;47.612;7.610;2023-04-16T02:36:30;97905.63;;;8.34;100.00
9307;BME280;4691;47.612;7.610;2023-04-16T02:38:56;97939.53;;;8.32;100.00
9307;BME280;4691;47.612;7.610;2023-04-16T02:41:22;97964.34;;;8.32;100.00
9307;BME280;4691;47.612;7.610;2023-04-16T02:43:47;97975.16;;;8.31;100.00
9307;BME280;4691;47.612;7.610;2023-04-16T02:46:12;97977.81;;;8.31;100.00
9307;BME280;4691;47.612;7.610;2023-04-16T02:48:38;97996.19;;;8.34;100.00
9307;BME280;4691;47.612;7.610;2023-04-16T02:51:04;98035.16;;;8.35;100.00
9307;BME280;4691;47.612;7.610;2023-04-16T02:53:29;98113.81;;;8.40;100.00
9307;BME280;4691;47.612;7.610;2023-04-16T02:55:55;98145.63;;;8.42;100.00
9307;BME280;4691;47.612;7.610;2023-04-16T02:58:21;98136.78;;;8.41;100.00
9307;BME280;4691;47.612;7.610;2023-04-16T03:00:47;98160.66;;;8.43;100.00
9307;BME280;4691;47.612;7.610;2023-04-16T03:03:13;98165.13;;;8.42;100.00
9307;BME280;4691;47.612;7.610;2023-04-16T03:05:38;98166.00;;;8.43;100.00
9307;BME280;4691;47.612;7.610;2023-04-16T03:08:04;98180.25;;;8.42;100.00
9307;BME280;4691;47.612;7.610;2023-04-16T03:10:29;98177.34;;;8.34;100.00
9307;BME280;4691;47.612;7.610;2023-04-16T03:12:55;98175.88;;;8.29;100.00
9307;BME280;4691;47.612;7.610;2023-04-16T03:15:20;98173.00;;;8.33;100.00
9307;BME280;4691;47.612;7.610;2023-04-16T03:17:45;98177.09;;;8.37;100.00
9307;BME280;4691;47.612;7.610;2023-04-16T03:20:11;98181.34;;;8.39;100.00
9307;BME280;4691;47.612;7.610;2023-04-16T03:22:37;98173.25;;;8.41;100.00
9307;BME280;4691;47.612;7.610;2023-04-16T03:25:03;98176.88;;;8.40;100.00
9307;BME280;4691;47.612;7.610;2023-04-16T03:27:28;98174.94;;;8.42;100.00
9307;BME280;4691;47.612;7.610;2023-04-16T03:29:53;98181.97;;;8.43;100.00
9307;BME280;4691;47.612;7.610;2023-04-16T03:32:19;98185.59;;;8.42;100.00
9307;BME280;4691;47.612;7.610;2023-04-16T03:34:44;98172.16;;;8.43;100.00
9307;BME280;4691;47.612;7.610;2023-04-16T03:37:10;98167.69;;;8.44;100.00
9307;BME280;4691;47.612;7.610;2023-04-16T03:39:36;98167.44;;;8.47;100.00
9307;BME280;4691;47.612;7.610;2023-04-16T03:42:01;98164.50;;;8.50;100.00
9307;BME280;4691;47.612;7.610;2023-04-16T03:44:27;98157.03;;;8.44;100.00
9307;BME280;4691;47.612;7.610;2023-04-16T03:46:53;98147.34;;;8.43;100.00
9307;BME280;4691;47.612;7.610;2023-04-16T03:49:18;98146.13;;;8.47;100.00
9307;BME280;4691;47.612;7.610;2023-04-16T03:51:43;98151.19;;;8.50;100.00
9307;BME280;4691;47.612;7.610;2023-04-16T03:54:09;98152.91;;;8.51;100.00
9307;BME280;4691;47.612;7.610;2023-04-16T03:56:34;98145.84;;;8.50;100.00
9307;BME280;4691;47.612;7.610;2023-04-16T03:58:59;98143.19;;;8.50;100.00
9307;BME280;4691;47.612;7.610;2023-04-16T04:01:24;98132.06;;;8.45;100.00
9307;BME280;4691;47.612;7.610;2023-04-16T04:03:50;98130.63;;;8.41;100.00
9307;BME280;4691;47.612;7.610;2023-04-16T04:06:15;98128.41;;;8.35;100.00
9307;BME280;4691;47.612;7.610;2023-04-16T04:08:40;98125.75;;;8.35;100.00
9307;BME280;4691;47.612;7.610;2023-04-16T04:11:06;98111.97;;;8.41;100.00
9307;BME280;4691;47.612;7.610;2023-04-16T04:13:31;98102.75;;;8.34;100.00
9307;BME280;4691;47.612;7.610;2023-04-16T04:15:56;98104.56;;;8.33;100.00
9307;BME280;4691;47.612;7.610;2023-04-16T04:18:21;98105.88;;;8.39;100.00
9307;BME280;4691;47.612;7.610;2023-04-16T04:20:47;98098.41;;;8.44;100.00
9307;BME280;4691;47.612;7.610;2023-04-16T04:23:12;98107.84;;;8.48;100.00
9307;BME280;4691;47.612;7.610;2023-04-16T04:25:37;98106.88;;;8.49;100.00
9307;BME280;4691;47.612;7.610;2023-04-16T04:28:03;98102.03;;;8.54;100.00
9307;BME280;4691;47.612;7.610;2023-04-16T04:30:28;98124.19;;;8.55;100.00
9307;BME280;4691;47.612;7.610;2023-04-16T04:32:53;98114.38;;;8.55;100.00
9307;BME280;4691;47.612;7.610;2023-04-16T04:35:19;98110.59;;;8.58;100.00
9307;BME280;4691;47.612;7.610;2023-04-16T04:37:44;98118.75;;;8.56;100.00
9307;BME280;4691;47.612;7.610;2023-04-16T04:40:10;98117.91;;;8.56;100.00
9307;BME280;4691;47.612;7.610;2023-04-16T04:42:36;98097.69;;;8.53;100.00
9307;BME280;4691;47.612;7.610;2023-04-16T04:45:02;98102.38;;;8.49;100.00
9307;BME280;4691;47.612;7.610;2023-04-16T04:47:27;98098.88;;;8.49;100.00
9307;BME280;4691;47.612;7.610;2023-04-16T04:49:52;98097.69;;;8.53;100.00
9307;BME280;4691;47.612;7.610;2023-04-16T04:52:17;98102.88;;;8.55;100.00
9307;BME280;4691;47.612;7.610;2023-04-16T04:54:44;98091.38;;;8.54;100.00
9307;BME280;4691;47.612;7.610;2023-04-16T04:57:09;98099.34;;;8.54;100.00
9307;BME280;4691;47.612;7.610;2023-04-16T04:59:35;98097.91;;;8.50;100.00
9307;BME280;4691;47.612;7.610;2023-04-16T05:02:00;98103.22;;;8.50;100.00
9307;BME280;4691;47.612;7.610;2023-04-16T05:04:27;98103.22;;;8.50;100.00
9307;BME280;4691;47.612;7.610;2023-04-16T05:06:53;98113.88;;;8.50;100.00
9307;BME280;4691;47.612;7.610;2023-04-16T05:09:18;98103.84;;;8.54;100.00
9307;BME280;4691;47.612;7.610;2023-04-16T05:11:44;98108.81;;;8.47;100.00
9307;BME280;4691;47.612;7.610;2023-04-16T05:14:09;98110.75;;;8.34;100.00
9307;BME280;4691;47.612;7.610;2023-04-16T05:16:35;98111.00;;;8.31;100.00
9307;BME280;4691;47.612;7.610;2023-04-16T05:19:01;98098.75;;;8.28;100.00
9307;BME280;4691;47.612;7.610;2023-04-16T05:21:26;98091.63;;;8.28;100.00
9307;BME280;4691;47.612;7.610;2023-04-16T05:23:52;98074.66;;;8.29;100.00
9307;BME280;4691;47.612;7.610;2023-04-16T05:26:17;98077.94;;;8.33;100.00
9307;BME280;4691;47.612;7.610;2023-04-16T05:28:42;98068.84;;;8.36;100.00
9307;BME280;4691;47.612;7.610;2023-04-16T05:31:08;98050.19;;;8.36;100.00
9307;BME280;4691;47.612;7.610;2023-04-16T05:33:33;98000.06;;;8.29;100.00
9307;BME280;4691;47.612;7.610;2023-04-16T05:35:58;97920.09;;;8.20;100.00
9307;BME280;4691;47.612;7.610;2023-04-16T05:38:24;97810.13;;;8.08;100.00
9307;BME280;4691;47.612;7.610;2023-04-16T05:40:49;97762.31;;;8.06;100.00
9307;BME280;4691;47.612;7.610;2023-04-16T05:43:14;97732.19;;;8.06;100.00
9307;BME280;4691;47.612;7.610;2023-04-16T05:45:40;97720.97;;;8.02;100.00
9307;BME280;4691;47.612;7.610;2023-04-16T05:48:06;97717.59;;;8.00;100.00
9307;BME280;4691;47.612;7.610;2023-04-16T05:50:32;97715.66;;;8.02;100.00
9307;BME280;4691;47.612;7.610;2023-04-16T05:52:57;97714.81;;;8.02;100.00
9307;BME280;4691;47.612;7.610;2023-04-16T05:55:23;97713.25;;;7.99;100.00
9307;BME280;4691;47.612;7.610;2023-04-16T05:57:48;97706.09;;;8.00;100.00
9307;BME280;4691;47.612;7.610;2023-04-16T06:00:13;97698.50;;;7.95;100.00
9307;BME280;4691;47.612;7.610;2023-04-16T06:02:39;97702.16;;;7.94;100.00
9307;BME280;4691;47.612;7.610;2023-04-16T06:05:04;97718.63;;;7.88;100.00
9307;BME280;4691;47.612;7.610;2023-04-16T06:07:30;97717.06;;;7.85;100.00
9307;BME280;4691;47.612;7.610;2023-04-16T06:09:55;97737.25;;;7.88;100.00
9307;BME280;4691;47.612;7.610;2023-04-16T06:12:20;97753.47;;;7.85;100.00
9307;BME280;4691;47.612;7.610;2023-04-16T06:14:45;97755.56;;;7.81;100.00
9307;BME280;4691;47.612;7.610;2023-04-16T06:17:11;97756.28;;;7.83;100.00
9307;BME280;4691;47.612;7.610;2023-04-16T06:19:36;97764.00;;;7.87;100.00
9307;BME280;4691;47.612;7.610;2023-04-16T06:22:01;97764.00;;;7.87;100.00
9307;BME280;4691;47.612;7.610;2023-04-16T06:24:27;97765.69;;;7.88;100.00
9307;BME280;4691;47.612;7.610;2023-04-16T06:26:52;97770.19;;;7.87;100.00
9307;BME280;4691;47.612;7.610;2023-04-16T06:29:18;97778.28;;;7.85;100.00
9307;BME280;4691;47.612;7.610;2023-04-16T06:31:43;97777.59;;;7.83;100.00
9307;BME280;4691;47.612;7.610;2023-04-16T06:34:09;97787.75;;;7.78;100.00
9307;BME280;4691;47.612;7.610;2023-04-16T06:36:34;97807.34;;;7.77;100.00
9307;BME280;4691;47.612;7.610;2023-04-16T06:39:01;97831.44;;;7.76;100.00
9307;BME280;4691;47.612;7.610;2023-04-16T06:41:27;97840.63;;;7.72;100.00
9307;BME280;4691;47.612;7.610;2023-04-16T06:43:52;97842.91;;;7.76;100.00
9307;BME280;4691;47.612;7.610;2023-04-16T06:46:18;97842.91;;;7.76;100.00
9307;BME280;4691;47.612;7.610;2023-04-16T06:48:43;97846.16;;;7.80;100.00
9307;BME280;4691;47.612;7.610;2023-04-16T06:51:08;97852.22;;;7.82;100.00
9307;BME280;4691;47.612;7.610;2023-04-16T06:53:35;97853.56;;;7.76;100.00
9307;BME280;4691;47.612;7.610;2023-04-16T06:56:01;97854.75;;;7.83;100.00
9307;BME280;4691;47.612;7.610;2023-04-16T06:58:27;97859.72;;;7.77;100.00
9307;BME280;4691;47.612;7.610;2023-04-16T07:00:52;97871.47;;;7.74;100.00
9307;BME280;4691;47.612;7.610;2023-04-16T07:03:17;97880.91;;;7.67;100.00
9307;BME280;4691;47.612;7.610;2023-04-16T07:05:43;97890.34;;;7.71;100.00
9307;BME280;4691;47.612;7.610;2023-04-16T07:08:08;97881.03;;;7.77;100.00
9307;BME280;4691;47.612;7.610;2023-04-16T07:10:33;97872.16;;;7.88;100.00
9307;BME280;4691;47.612;7.610;2023-04-16T07:12:59;97860.16;;;7.93;100.00
9307;BME280;4691;47.612;7.610;2023-04-16T07:15:26;97862.97;;;7.92;100.00
9307;BME280;4691;47.612;7.610;2023-04-16T07:17:51;97870.38;;;7.77;100.00
9307;BME280;4691;47.612;7.610;2023-04-16T07:20:16;97869.75;;;7.84;100.00
9307;BME280;4691;47.612;7.610;2023-04-16T07:22:41;97871.91;;;7.91;100.00
9307;BME280;4691;47.612;7.610;2023-04-16T07:25:08;97891.00;;;7.96;100.00
9307;BME280;4691;47.612;7.610;2023-04-16T07:27:33;97894.13;;;8.01;100.00
9307;BME280;4691;47.612;7.610;2023-04-16T07:29:58;97902.25;;;7.99;100.00
9307;BME280;4691;47.612;7.610;2023-04-16T07:32:24;97921.72;;;8.00;100.00
9307;BME280;4691;47.612;7.610;2023-04-16T07:34:49;97930.94;;;7.96;100.00
9307;BME280;4691;47.612;7.610;2023-04-16T07:37:15;97943.41;;;7.95;100.00
9307;BME280;4691;47.612;7.610;2023-04-16T07:39:40;97944.97;;;7.98;100.00
9307;BME280;4691;47.612;7.610;2023-04-16T07:42:05;97925.53;;;7.86;100.00
9307;BME280;4691;47.612;7.610;2023-04-16T07:44:31;97930.75;;;7.76;100.00
9307;BME280;4691;47.612;7.610;2023-04-16T07:46:56;97935.84;;;7.68;100.00
9307;BME280;4691;47.612;7.610;2023-04-16T07:49:21;97942.72;;;7.71;100.00
9307;BME280;4691;47.612;7.610;2023-04-16T07:51:47;97953.22;;;7.72;100.00
9307;BME280;4691;47.612;7.610;2023-04-16T07:54:12;97969.56;;;7.79;100.00
9307;BME280;4691;47.612;7.610;2023-04-16T07:56:37;97985.41;;;7.80;100.00
9307;BME280;4691;47.612;7.610;2023-04-16T07:59:03;98013.13;;;7.89;100.00
9307;BME280;4691;47.612;7.610;2023-04-16T08:01:28;98021.47;;;7.84;100.00
9307;BME280;4691;47.612;7.610;2023-04-16T08:03:54;98036.94;;;7.91;100.00
9307;BME280;4691;47.612;7.610;2023-04-16T08:06:19;98091.41;;;7.87;100.00
9307;BME280;4691;47.612;7.610;2023-04-16T08:08:45;98130.34;;;7.99;100.00
9307;BME280;4691;47.612;7.610;2023-04-16T08:11:10;98150.94;;;8.08;100.00
9307;BME280;4691;47.612;7.610;2023-04-16T08:13:35;98151.81;;;8.20;100.00
9307;BME280;4691;47.612;7.610;2023-04-16T08:16:01;98158.44;;;8.37;100.00
9307;BME280;4691;47.612;7.610;2023-04-16T08:18:26;98136.69;;;8.43;100.00
9307;BME280;4691;47.612;7.610;2023-04-16T08:20:51;98100.81;;;8.47;100.00
9307;BME280;4691;47.612;7.610;2023-04-16T08:23:17;98094.16;;;8.41;100.00
9307;BME280;4691;47.612;7.610;2023-04-16T08:25:42;98071.88;;;8.42;100.00
9307;BME280;4691;47.612;7.610;2023-04-16T08:28:07;98060.22;;;8.55;100.00
9307;BME280;4691;47.612;7.610;2023-04-16T08:30:32;98053.34;;;8.52;100.00
9307;BME280;4691;47.612;7.610;2023-04-16T08:32:58;98036.84;;;8.58;100.00
9307;BME280;4691;47.612;7.610;2023-04-16T08:35:23;98042.66;;;8.63;100.00
9307;BME280;4691;47.612;7.610;2023-04-16T08:37:48;98032.63;;;8.56;100.00
9307;BME280;4691;47.612;7.610;2023-04-16T08:40:14;98031.75;;;8.55;100.00
9307;BME280;4691;47.612;7.610;2023-04-16T08:42:44;98030.34;;;8.40;100.00
9307;BME280;4691;47.612;7.610;2023-04-16T08:45:15;98028.41;;;8.42;100.00
9307;BME280;4691;47.612;7.610;2023-04-16T08:47:45;98033.63;;;8.43;100.00
9307;BME280;4691;47.612;7.610;2023-04-16T08:50:13;98055.53;;;8.47;100.00
9307;BME280;4691;47.612;7.610;2023-04-16T08:52:55;98063.03;;;8.42;100.00
9307;BME280;4691;47.612;7.610;2023-04-16T08:55:25;98051.41;;;8.32;100.00
9307;BME280;4691;47.612;7.610;2023-04-16T08:57:57;98069.00;;;8.23;100.00
9307;BME280;4691;47.612;7.610;2023-04-16T09:00:23;98081.94;;;8.27;100.00
9307;BME280;4691;47.612;7.610;2023-04-16T09:02:49;98087.50;;;8.24;100.00
9307;BME280;4691;47.612;7.610;2023-04-16T09:05:16;98097.66;;;8.19;100.00
9307;BME280;4691;47.612;7.610;2023-04-16T09:07:43;98101.78;;;8.23;100.00
9307;BME280;4691;47.612;7.610;2023-04-16T09:10:09;98094.53;;;8.14;100.00
9307;BME280;4691;47.612;7.610;2023-04-16T09:12:36;98092.34;;;8.08;100.00
9307;BME280;4691;47.612;7.610;2023-04-16T09:15:02;98095.50;;;8.13;100.00
9307;BME280;4691;47.612;7.610;2023-04-16T09:17:28;98101.31;;;8.07;100.00
9307;BME280;4691;47.612;7.610;2023-04-16T09:19:53;98111.97;;;8.07;100.00
9307;BME280;4691;47.612;7.610;2023-04-16T09:22:19;98123.59;;;7.95;100.00
9307;BME280;4691;47.612;7.610;2023-04-16T09:24:44;98126.25;;;7.83;100.00
9307;BME280;4691;47.612;7.610;2023-04-16T09:27:11;98141.47;;;7.93;100.00
9307;BME280;4691;47.612;7.610;2023-04-16T09:29:38;98233.59;;;8.06;100.00
9307;BME280;4691;47.612;7.610;2023-04-16T09:32:06;98271.00;;;8.05;100.00
9307;BME280;4691;47.612;7.610;2023-04-16T09:34:33;98334.56;;;8.10;100.00
9307;BME280;4691;47.612;7.610;2023-04-16T09:37:17;98348.75;;;8.21;100.00
9307;BME280;4691;47.612;7.610;2023-04-16T09:39:43;98386.81;;;8.35;100.00
9307;BME280;4691;47.612;7.610;2023-04-16T09:42:10;98413.13;;;8.63;100.00
9307;BME280;4691;47.612;7.610;2023-04-16T09:44:36;98417.47;;;8.76;100.00
9307;BME280;4691;47.612;7.610;2023-04-16T09:47:07;98381.63;;;8.80;100.00
9307;BME280;4691;47.612;7.610;2023-04-16T09:49:34;98354.38;;;8.76;100.00
9307;BME280;4691;47.612;7.610;2023-04-16T09:52:00;98321.28;;;8.90;100.00
9307;BME280;4691;47.612;7.610;2023-04-16T09:54:26;98309.53;;;8.81;100.00
9307;BME280;4691;47.612;7.610;2023-04-16T09:56:55;98256.34;;;8.68;100.00
9307;BME280;4691;47.612;7.610;2023-04-16T09:59:22;98224.94;;;8.72;100.00
9307;BME280;4691;47.612;7.610;2023-04-16T10:01:48;98220.34;;;8.85;100.00
9307;BME280;4691;47.612;7.610;2023-04-16T10:04:15;98243.84;;;8.91;100.00
9307;BME280;4691;47.612;7.610;2023-04-16T10:06:40;98245.66;;;8.91;100.00
9307;BME280;4691;47.612;7.610;2023-04-16T10:09:07;98242.03;;;8.69;100.00
9307;BME280;4691;47.612;7.610;2023-04-16T10:11:33;98257.91;;;8.60;100.00
9307;BME280;4691;47.612;7.610;2023-04-16T10:13:59;98283.72;;;8.59;100.00
9307;BME280;4691;47.612;7.610;2023-04-16T10:16:24;98308.78;;;8.45;100.00
9307;BME280;4691;47.612;7.610;2023-04-16T10:18:50;98340.84;;;8.44;100.00
9307;BME280;4691;47.612;7.610;2023-04-16T10:21:17;98385.03;;;8.35;100.00
9307;BME280;4691;47.612;7.610;2023-04-16T10:23:43;98430.72;;;8.42;100.00
9307;BME280;4691;47.612;7.610;2023-04-16T10:26:08;98458.84;;;8.46;100.00
9307;BME280;4691;47.612;7.610;2023-04-16T10:28:34;98480.94;;;8.59;100.00
9307;BME280;4691;47.612;7.610;2023-04-16T10:31:02;98514.72;;;8.59;100.00
9307;BME280;4691;47.612;7.610;2023-04-16T10:33:30;98522.72;;;8.59;100.00
9307;BME280;4691;47.612;7.610;2023-04-16T10:36:13;98526.47;;;8.56;100.00
9307;BME280;4691;47.612;7.610;2023-04-16T10:38:44;98517.47;;;8.46;100.00
9307;BME280;4691;47.612;7.610;2023-04-16T10:41:09;98524.25;;;8.50;100.00
9307;BME280;4691;47.612;7.610;2023-04-16T10:43:40;98542.91;;;8.50;100.00
9307;BME280;4691;47.612;7.610;2023-04-16T10:46:25;98540.75;;;8.55;100.00
9307;BME280;4691;47.612;7.610;2023-04-16T10:48:59;98538.66;;;8.71;100.00
9307;BME280;4691;47.612;7.610;2023-04-16T10:51:29;98544.31;;;8.67;100.00
9307;BME280;4691;47.612;7.610;2023-04-16T10:56:44;98516.19;;;8.98;100.00
9307;BME280;4691;47.612;7.610;2023-04-16T10:59:10;98522.78;;;9.16;100.00
9307;BME280;4691;47.612;7.610;2023-04-16T11:01:39;98503.16;;;9.18;100.00
9307;BME280;4691;47.612;7.610;2023-04-16T11:06:59;98440.59;;;8.99;100.00
9307;BME280;4691;47.612;7.610;2023-04-16T11:12:16;98407.84;;;9.08;100.00
9307;BME280;4691;47.612;7.610;2023-04-16T11:14:49;98416.97;;;9.17;100.00
9307;BME280;4691;47.612;7.610;2023-04-16T11:17:14;98440.13;;;9.28;100.00
9307;BME280;4691;47.612;7.610;2023-04-16T11:19:41;98431.13;;;9.29;100.00
9307;BME280;4691;47.612;7.610;2023-04-16T11:22:07;98422.38;;;9.27;100.00
9307;BME280;4691;47.612;7.610;2023-04-16T11:24:32;98413.19;;;9.31;100.00
9307;BME280;4691;47.612;7.610;2023-04-16T11:26:58;98397.19;;;9.31;100.00
9307;BME280;4691;47.612;7.610;2023-04-16T11:29:24;98386.88;;;9.26;100.00
9307;BME280;4691;47.612;7.610;2023-04-16T11:31:50;98368.31;;;9.13;100.00
9307;BME280;4691;47.612;7.610;2023-04-16T11:34:16;98333.66;;;9.02;100.00
9307;BME280;4691;47.612;7.610;2023-04-16T11:36:43;98340.44;;;8.95;100.00
9307;BME280;4691;47.612;7.610;2023-04-16T11:39:09;98377.41;;;9.00;100.00
9307;BME280;4691;47.612;7.610;2023-04-16T11:41:41;98415.38;;;9.14;100.00
9307;BME280;4691;47.612;7.610;2023-04-16T11:44:23;98411.00;;;9.13;100.00
9307;BME280;4691;47.612;7.610;2023-04-16T11:46:50;98415.63;;;9.23;100.00
9307;BME280;4691;47.612;7.610;2023-04-16T11:49:16;98427.25;;;9.33;100.00
9307;BME280;4691;47.612;7.610;2023-04-16T11:51:45;98420.59;;;9.38;100.00
9307;BME280;4691;47.612;7.610;2023-04-16T11:54:21;98406.13;;;9.52;100.00
9307;BME280;4691;47.612;7.610;2023-04-16T11:56:48;98370.00;;;9.37;100.00
9307;BME280;4691;47.612;7.610;2023-04-16T11:59:15;98297.03;;;9.15;100.00
9307;BME280;4691;47.612;7.610;2023-04-16T12:01:44;98257.00;;;9.15;100.00
9307;BME280;4691;47.612;7.610;2023-04-16T12:04:10;98240.44;;;9.12;100.00
9307;BME280;4691;47.612;7.610;2023-04-16T12:06:35;98241.59;;;9.19;100.00
9307;BME280;4691;47.612;7.610;2023-04-16T12:09:21;98241.19;;;9.35;100.00
9307;BME280;4691;47.612;7.610;2023-04-16T12:11:47;98229.03;;;9.42;100.00
9307;BME280;4691;47.612;7.610;2023-04-16T12:14:13;98204.66;;;9.68;100.00
9307;BME280;4691;47.612;7.610;2023-04-16T12:16:38;98185.59;;;9.93;100.00
9307;BME280;4691;47.612;7.610;2023-04-16T12:19:04;98143.34;;;10.29;100.00
9307;BME280;4691;47.612;7.610;2023-04-16T12:21:49;98103.53;;;10.26;100.00
9307;BME280;4691;47.612;7.610;2023-04-16T12:24:17;98103.09;;;10.21;100.00
9307;BME280;4691;47.612;7.610;2023-04-16T12:26:51;98130.72;;;10.31;100.00
9307;BME280;4691;47.612;7.610;2023-04-16T12:29:23;98170.25;;;10.16;100.00
9307;BME280;4691;47.612;7.610;2023-04-16T12:31:50;98201.81;;;10.01;100.00
9307;BME280;4691;47.612;7.610;2023-04-16T12:34:17;98204.50;;;10.22;100.00
9307;BME280;4691;47.612;7.610;2023-04-16T12:36:46;98224.88;;;10.44;100.00
9307;BME280;4691;47.612;7.610;2023-04-16T12:39:13;98256.50;;;10.39;100.00
9307;BME280;4691;47.612;7.610;2023-04-16T12:41:41;98286.44;;;10.22;100.00
9307;BME280;4691;47.612;7.610;2023-04-16T12:44:08;98289.84;;;10.24;100.00
9307;BME280;4691;47.612;7.610;2023-04-16T12:46:37;98299.25;;;10.39;100.00
9307;BME280;4691;47.612;7.610;2023-04-16T12:49:02;98312.44;;;10.31;100.00
9307;BME280;4691;47.612;7.610;2023-04-16T12:51:27;98328.66;;;10.39;100.00
9307;BME280;4691;47.612;7.610;2023-04-16T12:53:53;98345.31;;;10.43;100.00
9307;BME280;4691;47.612;7.610;2023-04-16T12:56:19;98344.31;;;10.44;100.00
9307;BME280;4691;47.612;7.610;2023-04-16T12:58:44;98326.22;;;10.78;100.00
9307;BME280;4691;47.612;7.610;2023-04-16T13:01:10;98380.25;;;10.72;100.00
9307;BME280;4691;47.612;7.610;2023-04-16T13:03:36;98406.19;;;10.60;100.00
9307;BME280;4691;47.612;7.610;2023-04-16T13:06:02;98414.28;;;10.70;100.00
9307;BME280;4691;47.612;7.610;2023-04-16T13:08:28;98429.75;;;10.66;100.00
9307;BME280;4691;47.612;7.610;2023-04-16T13:10:53;98438.72;;;10.65;100.00
9307;BME280;4691;47.612;7.610;2023-04-16T13:13:19;98445.09;;;10.53;100.00
9307;BME280;4691;47.612;7.610;2023-04-16T13:15:44;98423.13;;;10.50;100.00
9307;BME280;4691;47.612;7.610;2023-04-16T13:18:10;98397.69;;;10.76;100.00
9307;BME280;4691;47.612;7.610;2023-04-16T13:20:35;98413.44;;;10.90;100.00
9307;BME280;4691;47.612;7.610;2023-04-16T13:23:00;98429.44;;;11.11;100.00
9307;BME280;4691;47.612;7.610;2023-04-16T13:25:29;98445.19;;;11.05;100.00